sensor_id;sensor_type;location;lat;lon;timestamp;pressure;altitude;pressure_sealevel;temperature
25514;BMP180;48128;54.242;10.280;2022-07-22T00:00:07;101209.00;;;16.90
25514;BMP180;48128;54.242;10.280;2022-07-22T00:02:35;101217.00;;;16.90
25514;BMP180;48128;54.242;10.280;2022-07-22T00:05:03;101216.00;;;16.80
25514;BMP180;48128;54.242;10.280;2022-07-22T00:07:30;101211.00;;;16.80
25514;BMP180;48128;54.242;10.280;2022-07-22T00:09:57;101213.00;;;16.80
25514;BMP180;48128;54.242;10.280;2022-07-22T00:12:25;101217.00;;;16.70
25514;BMP180;48128;54.242;10.280;2022-07-22T00:14:52;101220.00;;;16.70
25514;BMP180;48128;54.242;10.280;2022-07-22T00:17:19;101222.00;;;16.70
25514;BMP180;48128;54.242;10.280;2022-07-22T00:19:46;101224.00;;;16.70
25514;BMP180;48128;54.242;10.280;2022-07-22T00:22:13;101214.00;;;16.70
25514;BMP180;48128;54.242;10.280;2022-07-22T00:24:40;101224.00;;;16.60
25514;BMP180;48128;54.242;10.280;2022-07-22T00:27:07;101219.00;;;16.60
25514;BMP180;48128;54.242;10.280;2022-07-22T00:29:34;101222.00;;;16.60
25514;BMP180;48128;54.242;10.280;2022-07-22T00:32:01;101218.00;;;16.60
25514;BMP180;48128;54.242;10.280;2022-07-22T00:34:28;101240.00;;;16.50
25514;BMP180;48128;54.242;10.280;2022-07-22T00:36:55;101236.00;;;16.40
25514;BMP180;48128;54.242;10.280;2022-07-22T00:39:22;101242.00;;;16.40
25514;BMP180;48128;54.242;10.280;2022-07-22T00:41:49;101240.00;;;16.30
25514;BMP180;48128;54.242;10.280;2022-07-22T00:44:17;101238.00;;;16.20
25514;BMP180;48128;54.242;10.280;2022-07-22T00:46:44;101240.00;;;16.20
25514;BMP180;48128;54.242;10.280;2022-07-22T00:49:11;101232.00;;;16.10
25514;BMP180;48128;54.242;10.280;2022-07-22T00:51:38;101234.00;;;16.10
25514;BMP180;48128;54.242;10.280;2022-07-22T00:54:08;101234.00;;;16.10
25514;BMP180;48128;54.242;10.280;2022-07-22T00:56:35;101236.00;;;16.00
25514;BMP180;48128;54.242;10.280;2022-07-22T00:59:11;101223.00;;;16.00
25514;BMP180;48128;54.242;10.280;2022-07-22T01:01:38;101222.00;;;16.00
25514;BMP180;48128;54.242;10.280;2022-07-22T01:04:05;101216.00;;;16.00
25514;BMP180;48128;54.242;10.280;2022-07-22T01:06:33;101233.00;;;16.00
25514;BMP180;48128;54.242;10.280;2022-07-22T01:09:00;101246.00;;;15.90
25514;BMP180;48128;54.242;10.280;2022-07-22T01:11:27;101240.00;;;15.90
25514;BMP180;48128;54.242;10.280;2022-07-22T01:13:56;101238.00;;;15.90
25514;BMP180;48128;54.242;10.280;2022-07-22T01:16:24;101245.00;;;16.00
25514;BMP180;48128;54.242;10.280;2022-07-22T01:18:51;101233.00;;;16.00
25514;BMP180;48128;54.242;10.280;2022-07-22T01:21:19;101235.00;;;16.00
25514;BMP180;48128;54.242;10.280;2022-07-22T01:23:46;101240.00;;;16.00
25514;BMP180;48128;54.242;10.280;2022-07-22T01:26:17;101249.00;;;15.90
25514;BMP180;48128;54.242;10.280;2022-07-22T01:28:47;101247.00;;;15.90
25514;BMP180;48128;54.242;10.280;2022-07-22T01:31:14;101251.00;;;15.90
25514;BMP180;48128;54.242;10.280;2022-07-22T01:33:41;101242.00;;;15.90
25514;BMP180;48128;54.242;10.280;2022-07-22T01:36:09;101255.00;;;15.80
25514;BMP180;48128;54.242;10.280;2022-07-22T01:38:36;101255.00;;;15.80
25514;BMP180;48128;54.242;10.280;2022-07-22T01:41:03;101255.00;;;15.80
25514;BMP180;48128;54.242;10.280;2022-07-22T01:43:30;101255.00;;;15.70
25514;BMP180;48128;54.242;10.280;2022-07-22T01:45:57;101263.00;;;15.70
25514;BMP180;48128;54.242;10.280;2022-07-22T01:48:26;101265.00;;;15.60
25514;BMP180;48128;54.242;10.280;2022-07-22T01:50:54;101267.00;;;15.60
25514;BMP180;48128;54.242;10.280;2022-07-22T01:53:21;101253.00;;;15.60
25514;BMP180;48128;54.242;10.280;2022-07-22T01:55:48;101255.00;;;15.60
25514;BMP180;48128;54.242;10.280;2022-07-22T01:58:16;101262.00;;;15.50
25514;BMP180;48128;54.242;10.280;2022-07-22T02:00:43;101265.00;;;15.50
25514;BMP180;48128;54.242;10.280;2022-07-22T02:03:10;101265.00;;;15.40
25514;BMP180;48128;54.242;10.280;2022-07-22T02:05:38;101268.00;;;15.40
25514;BMP180;48128;54.242;10.280;2022-07-22T02:08:09;101252.00;;;15.40
25514;BMP180;48128;54.242;10.280;2022-07-22T02:10:37;101259.00;;;15.30
25514;BMP180;48128;54.242;10.280;2022-07-22T02:13:04;101266.00;;;15.30
25514;BMP180;48128;54.242;10.280;2022-07-22T02:15:34;101261.00;;;15.30
25514;BMP180;48128;54.242;10.280;2022-07-22T02:18:14;101263.00;;;15.30
25514;BMP180;48128;54.242;10.280;2022-07-22T02:20:42;101254.00;;;15.30
25514;BMP180;48128;54.242;10.280;2022-07-22T02:23:10;101261.00;;;15.30
25514;BMP180;48128;54.242;10.280;2022-07-22T02:25:39;101267.00;;;15.20
25514;BMP180;48128;54.242;10.280;2022-07-22T02:28:07;101272.00;;;15.20
25514;BMP180;48128;54.242;10.280;2022-07-22T02:30:34;101259.00;;;15.10
25514;BMP180;48128;54.242;10.280;2022-07-22T02:33:01;101260.00;;;15.10
25514;BMP180;48128;54.242;10.280;2022-07-22T02:35:29;101259.00;;;15.10
25514;BMP180;48128;54.242;10.280;2022-07-22T02:37:56;101261.00;;;15.00
25514;BMP180;48128;54.242;10.280;2022-07-22T02:40:23;101263.00;;;15.00
25514;BMP180;48128;54.242;10.280;2022-07-22T02:42:50;101256.00;;;15.00
25514;BMP180;48128;54.242;10.280;2022-07-22T02:45:17;101268.00;;;14.90
25514;BMP180;48128;54.242;10.280;2022-07-22T02:47:54;101263.00;;;14.90
25514;BMP180;48128;54.242;10.280;2022-07-22T02:50:22;101268.00;;;14.90
25514;BMP180;48128;54.242;10.280;2022-07-22T02:52:49;101258.00;;;14.90
25514;BMP180;48128;54.242;10.280;2022-07-22T02:55:17;101258.00;;;14.90
25514;BMP180;48128;54.242;10.280;2022-07-22T02:57:45;101269.00;;;14.80
25514;BMP180;48128;54.242;10.280;2022-07-22T03:00:14;101262.00;;;14.80
25514;BMP180;48128;54.242;10.280;2022-07-22T03:02:42;101270.00;;;14.80
25514;BMP180;48128;54.242;10.280;2022-07-22T03:05:09;101262.00;;;14.80
25514;BMP180;48128;54.242;10.280;2022-07-22T03:07:36;101262.00;;;14.80
25514;BMP180;48128;54.242;10.280;2022-07-22T03:10:04;101257.00;;;14.80
25514;BMP180;48128;54.242;10.280;2022-07-22T03:12:31;101259.00;;;14.80
25514;BMP180;48128;54.242;10.280;2022-07-22T03:14:58;101263.00;;;14.80
25514;BMP180;48128;54.242;10.280;2022-07-22T03:17:25;101257.00;;;14.80
25514;BMP180;48128;54.242;10.280;2022-07-22T03:19:52;101256.00;;;14.80
25514;BMP180;48128;54.242;10.280;2022-07-22T03:22:19;101261.00;;;14.80
25514;BMP180;48128;54.242;10.280;2022-07-22T03:24:46;101269.00;;;14.80
25514;BMP180;48128;54.242;10.280;2022-07-22T03:27:13;101269.00;;;14.80
25514;BMP180;48128;54.242;10.280;2022-07-22T03:29:40;101266.00;;;14.80
25514;BMP180;48128;54.242;10.280;2022-07-22T03:32:06;101275.00;;;14.80
25514;BMP180;48128;54.242;10.280;2022-07-22T03:34:33;101268.00;;;14.90
25514;BMP180;48128;54.242;10.280;2022-07-22T03:37:00;101273.00;;;14.90
25514;BMP180;48128;54.242;10.280;2022-07-22T03:39:27;101268.00;;;14.90
25514;BMP180;48128;54.242;10.280;2022-07-22T03:41:54;101265.00;;;14.90
25514;BMP180;48128;54.242;10.280;2022-07-22T03:44:21;101271.00;;;14.90
25514;BMP180;48128;54.242;10.280;2022-07-22T03:46:48;101284.00;;;14.90
25514;BMP180;48128;54.242;10.280;2022-07-22T03:49:16;101282.00;;;14.90
25514;BMP180;48128;54.242;10.280;2022-07-22T03:51:42;101285.00;;;14.90
25514;BMP180;48128;54.242;10.280;2022-07-22T03:54:10;101290.00;;;14.90
25514;BMP180;48128;54.242;10.280;2022-07-22T03:56:37;101276.00;;;14.90
25514;BMP180;48128;54.242;10.280;2022-07-22T03:59:04;101287.00;;;14.90
25514;BMP180;48128;54.242;10.280;2022-07-22T04:01:31;101272.00;;;14.90
25514;BMP180;48128;54.242;10.280;2022-07-22T04:03:58;101287.00;;;14.90
25514;BMP180;48128;54.242;10.280;2022-07-22T04:06:30;101278.00;;;14.90
25514;BMP180;48128;54.242;10.280;2022-07-22T04:08:58;101281.00;;;15.00
25514;BMP180;48128;54.242;10.280;2022-07-22T04:11:26;101272.00;;;15.00
25514;BMP180;48128;54.242;10.280;2022-07-22T04:13:58;101275.00;;;15.00
25514;BMP180;48128;54.242;10.280;2022-07-22T04:16:28;101272.00;;;15.00
25514;BMP180;48128;54.242;10.280;2022-07-22T04:18:55;101265.00;;;15.00
25514;BMP180;48128;54.242;10.280;2022-07-22T04:21:24;101266.00;;;15.00
25514;BMP180;48128;54.242;10.280;2022-07-22T04:23:51;101276.00;;;15.00
25514;BMP180;48128;54.242;10.280;2022-07-22T04:26:22;101278.00;;;15.00
25514;BMP180;48128;54.242;10.280;2022-07-22T04:28:49;101287.00;;;15.00
25514;BMP180;48128;54.242;10.280;2022-07-22T04:31:16;101278.00;;;15.10
25514;BMP180;48128;54.242;10.280;2022-07-22T04:33:43;101288.00;;;15.10
25514;BMP180;48128;54.242;10.280;2022-07-22T04:36:10;101284.00;;;15.10
25514;BMP180;48128;54.242;10.280;2022-07-22T04:38:37;101274.00;;;15.10
25514;BMP180;48128;54.242;10.280;2022-07-22T04:41:04;101280.00;;;15.10
25514;BMP180;48128;54.242;10.280;2022-07-22T04:43:31;101285.00;;;15.10
25514;BMP180;48128;54.242;10.280;2022-07-22T04:45:58;101282.00;;;15.20
25514;BMP180;48128;54.242;10.280;2022-07-22T04:48:25;101276.00;;;15.20
25514;BMP180;48128;54.242;10.280;2022-07-22T04:50:52;101283.00;;;15.20
25514;BMP180;48128;54.242;10.280;2022-07-22T04:53:19;101275.00;;;15.20
25514;BMP180;48128;54.242;10.280;2022-07-22T04:56:07;101279.00;;;15.20
25514;BMP180;48128;54.242;10.280;2022-07-22T04:58:34;101281.00;;;15.20
25514;BMP180;48128;54.242;10.280;2022-07-22T05:01:01;101276.00;;;15.30
25514;BMP180;48128;54.242;10.280;2022-07-22T05:03:28;101279.00;;;15.30
25514;BMP180;48128;54.242;10.280;2022-07-22T05:05:55;101274.00;;;15.40
25514;BMP180;48128;54.242;10.280;2022-07-22T05:08:21;101276.00;;;15.40
25514;BMP180;48128;54.242;10.280;2022-07-22T05:10:48;101280.00;;;15.50
25514;BMP180;48128;54.242;10.280;2022-07-22T05:13:15;101280.00;;;15.50
25514;BMP180;48128;54.242;10.280;2022-07-22T05:15:43;101285.00;;;15.50
25514;BMP180;48128;54.242;10.280;2022-07-22T05:18:12;101277.00;;;15.50
25514;BMP180;48128;54.242;10.280;2022-07-22T05:20:39;101284.00;;;15.50
25514;BMP180;48128;54.242;10.280;2022-07-22T05:23:06;101282.00;;;15.60
25514;BMP180;48128;54.242;10.280;2022-07-22T05:25:34;101277.00;;;15.60
25514;BMP180;48128;54.242;10.280;2022-07-22T05:28:01;101279.00;;;15.60
25514;BMP180;48128;54.242;10.280;2022-07-22T05:30:28;101274.00;;;15.70
25514;BMP180;48128;54.242;10.280;2022-07-22T05:32:55;101279.00;;;15.70
25514;BMP180;48128;54.242;10.280;2022-07-22T05:35:22;101278.00;;;15.70
25514;BMP180;48128;54.242;10.280;2022-07-22T05:37:49;101288.00;;;15.70
25514;BMP180;48128;54.242;10.280;2022-07-22T05:40:16;101284.00;;;15.80
25514;BMP180;48128;54.242;10.280;2022-07-22T05:42:43;101288.00;;;15.80
25514;BMP180;48128;54.242;10.280;2022-07-22T05:45:12;101282.00;;;15.80
25514;BMP180;48128;54.242;10.280;2022-07-22T05:47:39;101285.00;;;15.90
25514;BMP180;48128;54.242;10.280;2022-07-22T05:50:06;101288.00;;;15.90
25514;BMP180;48128;54.242;10.280;2022-07-22T05:52:36;101296.00;;;15.90
25514;BMP180;48128;54.242;10.280;2022-07-22T05:55:04;101298.00;;;15.90
25514;BMP180;48128;54.242;10.280;2022-07-22T05:57:31;101296.00;;;15.90
25514;BMP180;48128;54.242;10.280;2022-07-22T05:59:58;101303.00;;;16.00
25514;BMP180;48128;54.242;10.280;2022-07-22T06:02:25;101300.00;;;16.00
25514;BMP180;48128;54.242;10.280;2022-07-22T06:04:52;101306.00;;;16.00
25514;BMP180;48128;54.242;10.280;2022-07-22T06:07:20;101315.00;;;16.00
25514;BMP180;48128;54.242;10.280;2022-07-22T06:09:47;101319.00;;;16.10
25514;BMP180;48128;54.242;10.280;2022-07-22T06:12:14;101314.00;;;16.10
25514;BMP180;48128;54.242;10.280;2022-07-22T06:14:41;101320.00;;;16.20
25514;BMP180;48128;54.242;10.280;2022-07-22T06:17:08;101314.00;;;16.30
25514;BMP180;48128;54.242;10.280;2022-07-22T06:19:35;101321.00;;;16.30
25514;BMP180;48128;54.242;10.280;2022-07-22T06:22:02;101320.00;;;16.40
25514;BMP180;48128;54.242;10.280;2022-07-22T06:24:29;101332.00;;;16.40
25514;BMP180;48128;54.242;10.280;2022-07-22T06:26:56;101326.00;;;16.50
25514;BMP180;48128;54.242;10.280;2022-07-22T06:29:23;101340.00;;;16.60
25514;BMP180;48128;54.242;10.280;2022-07-22T06:31:50;101336.00;;;16.70
25514;BMP180;48128;54.242;10.280;2022-07-22T06:34:17;101343.00;;;16.70
25514;BMP180;48128;54.242;10.280;2022-07-22T06:36:44;101346.00;;;16.80
25514;BMP180;48128;54.242;10.280;2022-07-22T06:39:12;101346.00;;;16.80
25514;BMP180;48128;54.242;10.280;2022-07-22T06:41:39;101349.00;;;16.70
25514;BMP180;48128;54.242;10.280;2022-07-22T06:44:06;101357.00;;;16.70
25514;BMP180;48128;54.242;10.280;2022-07-22T06:46:33;101344.00;;;16.70
25514;BMP180;48128;54.242;10.280;2022-07-22T06:49:00;101342.00;;;16.70
25514;BMP180;48128;54.242;10.280;2022-07-22T06:51:27;101351.00;;;16.70
25514;BMP180;48128;54.242;10.280;2022-07-22T06:53:54;101342.00;;;16.80
25514;BMP180;48128;54.242;10.280;2022-07-22T06:56:21;101332.00;;;17.00
25514;BMP180;48128;54.242;10.280;2022-07-22T06:58:48;101342.00;;;17.20
25514;BMP180;48128;54.242;10.280;2022-07-22T07:01:15;101340.00;;;17.30
25514;BMP180;48128;54.242;10.280;2022-07-22T07:03:42;101344.00;;;17.30
25514;BMP180;48128;54.242;10.280;2022-07-22T07:06:11;101352.00;;;17.20
25514;BMP180;48128;54.242;10.280;2022-07-22T07:08:41;101355.00;;;17.20
25514;BMP180;48128;54.242;10.280;2022-07-22T07:11:08;101355.00;;;17.10
25514;BMP180;48128;54.242;10.280;2022-07-22T07:13:35;101336.00;;;17.10
25514;BMP180;48128;54.242;10.280;2022-07-22T07:16:02;101363.00;;;17.10
25514;BMP180;48128;54.242;10.280;2022-07-22T07:18:29;101355.00;;;17.10
25514;BMP180;48128;54.242;10.280;2022-07-22T07:20:56;101345.00;;;17.20
25514;BMP180;48128;54.242;10.280;2022-07-22T07:23:23;101350.00;;;17.10
25514;BMP180;48128;54.242;10.280;2022-07-22T07:25:51;101356.00;;;17.20
25514;BMP180;48128;54.242;10.280;2022-07-22T07:28:19;101367.00;;;17.30
25514;BMP180;48128;54.242;10.280;2022-07-22T07:30:47;101377.00;;;17.30
25514;BMP180;48128;54.242;10.280;2022-07-22T07:33:14;101376.00;;;17.10
25514;BMP180;48128;54.242;10.280;2022-07-22T07:35:41;101375.00;;;17.20
25514;BMP180;48128;54.242;10.280;2022-07-22T07:38:08;101382.00;;;17.20
25514;BMP180;48128;54.242;10.280;2022-07-22T07:40:35;101395.00;;;17.30
25514;BMP180;48128;54.242;10.280;2022-07-22T07:43:04;101408.00;;;17.30
25514;BMP180;48128;54.242;10.280;2022-07-22T07:45:31;101398.00;;;17.30
25514;BMP180;48128;54.242;10.280;2022-07-22T07:48:02;101396.00;;;17.40
25514;BMP180;48128;54.242;10.280;2022-07-22T07:50:30;101397.00;;;17.50
25514;BMP180;48128;54.242;10.280;2022-07-22T07:52:57;101390.00;;;17.70
25514;BMP180;48128;54.242;10.280;2022-07-22T07:55:24;101419.00;;;17.80
25514;BMP180;48128;54.242;10.280;2022-07-22T07:57:51;101420.00;;;17.90
25514;BMP180;48128;54.242;10.280;2022-07-22T08:00:25;101425.00;;;17.90
25514;BMP180;48128;54.242;10.280;2022-07-22T08:02:56;101424.00;;;17.90
25514;BMP180;48128;54.242;10.280;2022-07-22T08:05:26;101424.00;;;17.90
25514;BMP180;48128;54.242;10.280;2022-07-22T08:07:53;101420.00;;;17.90
25514;BMP180;48128;54.242;10.280;2022-07-22T08:10:25;101434.00;;;18.00
25514;BMP180;48128;54.242;10.280;2022-07-22T08:13:17;101435.00;;;18.00
25514;BMP180;48128;54.242;10.280;2022-07-22T08:15:44;101435.00;;;18.00
25514;BMP180;48128;54.242;10.280;2022-07-22T08:18:12;101431.00;;;18.00
25514;BMP180;48128;54.242;10.280;2022-07-22T08:20:39;101437.00;;;18.10
25514;BMP180;48128;54.242;10.280;2022-07-22T08:23:06;101439.00;;;18.30
25514;BMP180;48128;54.242;10.280;2022-07-22T08:25:34;101418.00;;;18.50
25514;BMP180;48128;54.242;10.280;2022-07-22T08:28:01;101431.00;;;18.50
25514;BMP180;48128;54.242;10.280;2022-07-22T08:30:28;101461.00;;;18.40
25514;BMP180;48128;54.242;10.280;2022-07-22T08:32:56;101464.00;;;18.50
25514;BMP180;48128;54.242;10.280;2022-07-22T08:35:23;101449.00;;;18.50
25514;BMP180;48128;54.242;10.280;2022-07-22T08:37:50;101439.00;;;18.60
25514;BMP180;48128;54.242;10.280;2022-07-22T08:40:18;101453.00;;;18.60
25514;BMP180;48128;54.242;10.280;2022-07-22T08:42:48;101448.00;;;18.40
25514;BMP180;48128;54.242;10.280;2022-07-22T08:45:16;101453.00;;;18.30
25514;BMP180;48128;54.242;10.280;2022-07-22T08:47:47;101451.00;;;18.30
25514;BMP180;48128;54.242;10.280;2022-07-22T08:50:16;101446.00;;;18.20
25514;BMP180;48128;54.242;10.280;2022-07-22T08:52:43;101448.00;;;18.20
25514;BMP180;48128;54.242;10.280;2022-07-22T08:55:11;101449.00;;;18.30
25514;BMP180;48128;54.242;10.280;2022-07-22T08:57:43;101457.00;;;18.50
25514;BMP180;48128;54.242;10.280;2022-07-22T09:00:13;101462.00;;;18.50
25514;BMP180;48128;54.242;10.280;2022-07-22T09:02:42;101456.00;;;18.60
25514;BMP180;48128;54.242;10.280;2022-07-22T09:05:12;101471.00;;;18.60
25514;BMP180;48128;54.242;10.280;2022-07-22T09:08:00;101479.00;;;18.60
25514;BMP180;48128;54.242;10.280;2022-07-22T09:10:35;101478.00;;;18.70
25514;BMP180;48128;54.242;10.280;2022-07-22T09:13:05;101483.00;;;18.70
25514;BMP180;48128;54.242;10.280;2022-07-22T09:15:38;101486.00;;;18.80
25514;BMP180;48128;54.242;10.280;2022-07-22T09:18:08;101490.00;;;18.80
25514;BMP180;48128;54.242;10.280;2022-07-22T09:20:37;101484.00;;;18.90
25514;BMP180;48128;54.242;10.280;2022-07-22T09:23:19;101494.00;;;18.90
25514;BMP180;48128;54.242;10.280;2022-07-22T09:25:50;101505.00;;;18.80
25514;BMP180;48128;54.242;10.280;2022-07-22T09:28:21;101511.00;;;18.70
25514;BMP180;48128;54.242;10.280;2022-07-22T09:30:55;101490.00;;;18.60
25514;BMP180;48128;54.242;10.280;2022-07-22T09:33:25;101493.00;;;18.60
25514;BMP180;48128;54.242;10.280;2022-07-22T09:36:00;101500.00;;;18.50
25514;BMP180;48128;54.242;10.280;2022-07-22T09:38:28;101509.00;;;18.40
25514;BMP180;48128;54.242;10.280;2022-07-22T09:40:56;101506.00;;;18.40
25514;BMP180;48128;54.242;10.280;2022-07-22T09:43:24;101503.00;;;18.40
25514;BMP180;48128;54.242;10.280;2022-07-22T09:45:57;101504.00;;;18.40
25514;BMP180;48128;54.242;10.280;2022-07-22T09:48:26;101502.00;;;18.40
25514;BMP180;48128;54.242;10.280;2022-07-22T09:50:54;101522.00;;;18.40
25514;BMP180;48128;54.242;10.280;2022-07-22T09:53:26;101521.00;;;18.40
25514;BMP180;48128;54.242;10.280;2022-07-22T09:55:59;101514.00;;;18.30
25514;BMP180;48128;54.242;10.280;2022-07-22T09:58:27;101517.00;;;18.30
25514;BMP180;48128;54.242;10.280;2022-07-22T10:00:58;101517.00;;;18.40
25514;BMP180;48128;54.242;10.280;2022-07-22T10:03:33;101521.00;;;18.60
25514;BMP180;48128;54.242;10.280;2022-07-22T10:06:02;101528.00;;;18.60
25514;BMP180;48128;54.242;10.280;2022-07-22T10:08:31;101513.00;;;18.80
25514;BMP180;48128;54.242;10.280;2022-07-22T10:11:03;101517.00;;;18.90
25514;BMP180;48128;54.242;10.280;2022-07-22T10:13:31;101519.00;;;19.10
25514;BMP180;48128;54.242;10.280;2022-07-22T10:15:58;101514.00;;;19.10
25514;BMP180;48128;54.242;10.280;2022-07-22T10:18:27;101531.00;;;19.00
25514;BMP180;48128;54.242;10.280;2022-07-22T10:21:08;101529.00;;;19.00
25514;BMP180;48128;54.242;10.280;2022-07-22T10:23:36;101523.00;;;18.90
25514;BMP180;48128;54.242;10.280;2022-07-22T10:26:48;101519.00;;;19.00
25514;BMP180;48128;54.242;10.280;2022-07-22T10:51:29;101529.00;;;19.30
25514;BMP180;48128;54.242;10.280;2022-07-22T10:53:58;101541.00;;;19.20
25514;BMP180;48128;54.242;10.280;2022-07-22T10:56:30;101519.00;;;19.20
25514;BMP180;48128;54.242;10.280;2022-07-22T10:59:14;101535.00;;;19.20
25514;BMP180;48128;54.242;10.280;2022-07-22T11:01:47;101522.00;;;19.30
25514;BMP180;48128;54.242;10.280;2022-07-22T11:04:25;101556.00;;;19.40
25514;BMP180;48128;54.242;10.280;2022-07-22T11:06:56;101556.00;;;19.90
25514;BMP180;48128;54.242;10.280;2022-07-22T11:09:33;101550.00;;;20.30
25514;BMP180;48128;54.242;10.280;2022-07-22T11:12:00;101557.00;;;20.60
25514;BMP180;48128;54.242;10.280;2022-07-22T11:14:31;101567.00;;;20.70
25514;BMP180;48128;54.242;10.280;2022-07-22T11:17:08;101556.00;;;21.20
25514;BMP180;48128;54.242;10.280;2022-07-22T11:19:37;101561.00;;;21.30
25514;BMP180;48128;54.242;10.280;2022-07-22T11:22:10;101562.00;;;21.20
25514;BMP180;48128;54.242;10.280;2022-07-22T11:24:39;101565.00;;;21.00
25514;BMP180;48128;54.242;10.280;2022-07-22T11:27:17;101561.00;;;20.80
25514;BMP180;48128;54.242;10.280;2022-07-22T11:29:49;101546.00;;;20.60
25514;BMP180;48128;54.242;10.280;2022-07-22T11:32:17;101543.00;;;20.50
25514;BMP180;48128;54.242;10.280;2022-07-22T11:34:45;101547.00;;;20.40
25514;BMP180;48128;54.242;10.280;2022-07-22T11:37:16;101531.00;;;20.40
25514;BMP180;48128;54.242;10.280;2022-07-22T11:39:44;101541.00;;;20.40
25514;BMP180;48128;54.242;10.280;2022-07-22T11:42:11;101541.00;;;20.40
25514;BMP180;48128;54.242;10.280;2022-07-22T11:44:39;101554.00;;;20.30
25514;BMP180;48128;54.242;10.280;2022-07-22T11:47:08;101531.00;;;20.20
25514;BMP180;48128;54.242;10.280;2022-07-22T11:49:38;101522.00;;;20.40
25514;BMP180;48128;54.242;10.280;2022-07-22T11:52:09;101536.00;;;20.60
25514;BMP180;48128;54.242;10.280;2022-07-22T11:54:44;101530.00;;;20.60
25514;BMP180;48128;54.242;10.280;2022-07-22T11:57:13;101536.00;;;20.80
25514;BMP180;48128;54.242;10.280;2022-07-22T11:59:40;101510.00;;;20.70
25514;BMP180;48128;54.242;10.280;2022-07-22T12:02:09;101536.00;;;20.70
25514;BMP180;48128;54.242;10.280;2022-07-22T12:04:39;101530.00;;;20.60
25514;BMP180;48128;54.242;10.280;2022-07-22T12:07:07;101553.00;;;20.50
25514;BMP180;48128;54.242;10.280;2022-07-22T12:09:38;101554.00;;;20.30
25514;BMP180;48128;54.242;10.280;2022-07-22T12:12:09;101532.00;;;20.10
25514;BMP180;48128;54.242;10.280;2022-07-22T12:14:49;101559.00;;;20.10
25514;BMP180;48128;54.242;10.280;2022-07-22T12:17:27;101551.00;;;20.20
25514;BMP180;48128;54.242;10.280;2022-07-22T12:19:54;101525.00;;;20.20
25514;BMP180;48128;54.242;10.280;2022-07-22T12:22:22;101549.00;;;20.20
25514;BMP180;48128;54.242;10.280;2022-07-22T12:25:03;101542.00;;;20.40
25514;BMP180;48128;54.242;10.280;2022-07-22T12:27:32;101534.00;;;20.50
25514;BMP180;48128;54.242;10.280;2022-07-22T12:29:59;101536.00;;;20.50
25514;BMP180;48128;54.242;10.280;2022-07-22T12:32:28;101527.00;;;20.60
25514;BMP180;48128;54.242;10.280;2022-07-22T12:35:02;101536.00;;;20.60
25514;BMP180;48128;54.242;10.280;2022-07-22T12:37:44;101542.00;;;20.50
25514;BMP180;48128;54.242;10.280;2022-07-22T12:40:20;101547.00;;;20.20
25514;BMP180;48128;54.242;10.280;2022-07-22T12:45:31;101516.00;;;20.00
25514;BMP180;48128;54.242;10.280;2022-07-22T12:50:34;101516.00;;;20.10
25514;BMP180;48128;54.242;10.280;2022-07-22T12:53:12;101521.00;;;20.20
25514;BMP180;48128;54.242;10.280;2022-07-22T12:55:49;101521.00;;;20.30
25514;BMP180;48128;54.242;10.280;2022-07-22T12:58:19;101518.00;;;20.20
25514;BMP180;48128;54.242;10.280;2022-07-22T13:00:51;101525.00;;;20.10
25514;BMP180;48128;54.242;10.280;2022-07-22T13:03:20;101521.00;;;20.20
25514;BMP180;48128;54.242;10.280;2022-07-22T13:05:55;101529.00;;;20.10
25514;BMP180;48128;54.242;10.280;2022-07-22T13:08:23;101510.00;;;20.10
25514;BMP180;48128;54.242;10.280;2022-07-22T13:10:52;101488.00;;;20.20
25514;BMP180;48128;54.242;10.280;2022-07-22T13:13:21;101487.00;;;20.40
25514;BMP180;48128;54.242;10.280;2022-07-22T13:15:49;101498.00;;;20.60
25514;BMP180;48128;54.242;10.280;2022-07-22T13:18:17;101522.00;;;20.60
25514;BMP180;48128;54.242;10.280;2022-07-22T13:20:44;101509.00;;;20.50
25514;BMP180;48128;54.242;10.280;2022-07-22T13:23:12;101513.00;;;20.60
25514;BMP180;48128;54.242;10.280;2022-07-22T13:25:39;101505.00;;;20.60
25514;BMP180;48128;54.242;10.280;2022-07-22T13:28:06;101533.00;;;20.90
25514;BMP180;48128;54.242;10.280;2022-07-22T13:30:33;101533.00;;;20.80
25514;BMP180;48128;54.242;10.280;2022-07-22T13:33:00;101534.00;;;20.70
25514;BMP180;48128;54.242;10.280;2022-07-22T13:35:27;101534.00;;;20.70
25514;BMP180;48128;54.242;10.280;2022-07-22T13:37:56;101534.00;;;20.70
25514;BMP180;48128;54.242;10.280;2022-07-22T13:40:24;101528.00;;;20.80
25514;BMP180;48128;54.242;10.280;2022-07-22T13:42:51;101543.00;;;20.70
25514;BMP180;48128;54.242;10.280;2022-07-22T13:45:18;101545.00;;;20.50
25514;BMP180;48128;54.242;10.280;2022-07-22T13:47:46;101528.00;;;20.40
25514;BMP180;48128;54.242;10.280;2022-07-22T13:50:13;101555.00;;;20.10
25514;BMP180;48128;54.242;10.280;2022-07-22T13:52:40;101530.00;;;20.10
25514;BMP180;48128;54.242;10.280;2022-07-22T13:55:08;101506.00;;;19.90
25514;BMP180;48128;54.242;10.280;2022-07-22T13:57:35;101502.00;;;19.90
25514;BMP180;48128;54.242;10.280;2022-07-22T14:00:04;101515.00;;;19.90
25514;BMP180;48128;54.242;10.280;2022-07-22T14:02:42;101503.00;;;19.90
25514;BMP180;48128;54.242;10.280;2022-07-22T14:05:09;101496.00;;;20.00
25514;BMP180;48128;54.242;10.280;2022-07-22T14:07:36;101496.00;;;20.00
25514;BMP180;48128;54.242;10.280;2022-07-22T14:10:04;101510.00;;;20.00
25514;BMP180;48128;54.242;10.280;2022-07-22T14:12:31;101508.00;;;19.80
25514;BMP180;48128;54.242;10.280;2022-07-22T14:14:58;101495.00;;;19.70
25514;BMP180;48128;54.242;10.280;2022-07-22T14:17:33;101504.00;;;19.60
25514;BMP180;48128;54.242;10.280;2022-07-22T14:20:00;101511.00;;;19.60